sensor_id;sensor_type;location;lat;lon;timestamp;P1;durP1;ratioP1;P2;durP2;ratioP2
73557;SDS011;61829;53.286;10.434;2023-05-16T00:01:59;4.80;;;3.40;;
73557;SDS011;61829;53.286;10.434;2023-05-16T00:04:25;10.27;;;3.70;;
73557;SDS011;61829;53.286;10.434;2023-05-16T00:06:54;5.72;;;3.60;;
73557;SDS011;61829;53.286;10.434;2023-05-16T00:09:20;6.60;;;3.72;;
73557;SDS011;61829;53.286;10.434;2023-05-16T00:11:46;8.23;;;3.72;;
73557;SDS011;61829;53.286;10.434;2023-05-16T00:14:13;8.52;;;3.85;;
73557;SDS011;61829;53.286;10.434;2023-05-16T00:16:39;7.90;;;3.35;;
73557;SDS011;61829;53.286;10.434;2023-05-16T00:19:06;5.15;;;3.38;;
73557;SDS011;61829;53.286;10.434;2023-05-16T00:21:32;8.45;;;4.00;;
73557;SDS011;61829;53.286;10.434;2023-05-16T00:23:58;5.78;;;3.50;;
73557;SDS011;61829;53.286;10.434;2023-05-16T00:26:24;6.28;;;3.58;;
73557;SDS011;61829;53.286;10.434;2023-05-16T00:28:50;5.75;;;3.70;;
73557;SDS011;61829;53.286;10.434;2023-05-16T00:31:19;8.90;;;3.70;;
73557;SDS011;61829;53.286;10.434;2023-05-16T00:33:45;6.72;;;2.92;;
73557;SDS011;61829;53.286;10.434;2023-05-16T00:36:11;8.60;;;3.55;;
73557;SDS011;61829;53.286;10.434;2023-05-16T00:38:37;5.35;;;3.50;;
73557;SDS011;61829;53.286;10.434;2023-05-16T00:41:03;7.40;;;3.78;;
73557;SDS011;61829;53.286;10.434;2023-05-16T00:43:29;6.03;;;3.33;;
73557;SDS011;61829;53.286;10.434;2023-05-16T00:45:55;6.88;;;3.63;;
73557;SDS011;61829;53.286;10.434;2023-05-16T00:48:22;5.78;;;3.00;;
73557;SDS011;61829;53.286;10.434;2023-05-16T00:50:48;6.72;;;2.92;;
73557;SDS011;61829;53.286;10.434;2023-05-16T00:53:17;7.65;;;3.03;;
73557;SDS011;61829;53.286;10.434;2023-05-16T00:55:44;5.65;;;3.35;;
73557;SDS011;61829;53.286;10.434;2023-05-16T00:58:10;4.78;;;3.28;;
73557;SDS011;61829;53.286;10.434;2023-05-16T01:00:36;4.63;;;3.05;;
73557;SDS011;61829;53.286;10.434;2023-05-16T01:03:03;4.30;;;3.22;;
73557;SDS011;61829;53.286;10.434;2023-05-16T01:05:29;3.67;;;2.90;;
73557;SDS011;61829;53.286;10.434;2023-05-16T01:07:56;5.78;;;3.33;;
73557;SDS011;61829;53.286;10.434;2023-05-16T01:10:22;7.07;;;3.30;;
73557;SDS011;61829;53.286;10.434;2023-05-16T01:15:55;7.80;;;4.47;;
73557;SDS011;61829;53.286;10.434;2023-05-16T01:18:35;7.20;;;4.57;;
73557;SDS011;61829;53.286;10.434;2023-05-16T01:21:10;9.32;;;5.15;;
73557;SDS011;61829;53.286;10.434;2023-05-16T01:23:59;7.80;;;4.15;;
73557;SDS011;61829;53.286;10.434;2023-05-16T01:26:28;8.38;;;4.40;;
73557;SDS011;61829;53.286;10.434;2023-05-16T01:28:54;5.53;;;3.70;;
73557;SDS011;61829;53.286;10.434;2023-05-16T01:31:20;5.65;;;3.97;;
73557;SDS011;61829;53.286;10.434;2023-05-16T01:33:47;5.80;;;3.67;;
73557;SDS011;61829;53.286;10.434;2023-05-16T01:36:35;6.97;;;3.63;;
73557;SDS011;61829;53.286;10.434;2023-05-16T01:41:46;5.60;;;2.80;;
73557;SDS011;61829;53.286;10.434;2023-05-16T01:46:58;4.53;;;2.50;;
73557;SDS011;61829;53.286;10.434;2023-05-16T01:49:43;4.25;;;2.13;;
73557;SDS011;61829;53.286;10.434;2023-05-16T01:52:12;4.97;;;2.13;;
73557;SDS011;61829;53.286;10.434;2023-05-16T01:54:56;6.45;;;2.10;;
73557;SDS011;61829;53.286;10.434;2023-05-16T01:57:24;5.35;;;1.85;;
73557;SDS011;61829;53.286;10.434;2023-05-16T01:59:51;3.22;;;1.90;;
73557;SDS011;61829;53.286;10.434;2023-05-16T02:02:18;4.65;;;1.90;;
73557;SDS011;61829;53.286;10.434;2023-05-16T02:07:10;4.45;;;1.70;;
73557;SDS011;61829;53.286;10.434;2023-05-16T02:09:39;4.20;;;1.90;;
73557;SDS011;61829;53.286;10.434;2023-05-16T02:12:05;2.85;;;1.67;;
73557;SDS011;61829;53.286;10.434;2023-05-16T02:14:31;3.45;;;1.73;;
73557;SDS011;61829;53.286;10.434;2023-05-16T02:16:57;3.35;;;1.70;;
73557;SDS011;61829;53.286;10.434;2023-05-16T02:19:23;4.43;;;2.00;;
73557;SDS011;61829;53.286;10.434;2023-05-16T02:21:49;6.35;;;2.22;;
73557;SDS011;61829;53.286;10.434;2023-05-16T02:24:15;5.10;;;2.17;;
73557;SDS011;61829;53.286;10.434;2023-05-16T02:26:41;3.00;;;1.90;;
73557;SDS011;61829;53.286;10.434;2023-05-16T02:29:08;4.38;;;2.38;;
73557;SDS011;61829;53.286;10.434;2023-05-16T02:31:34;8.35;;;2.03;;
73557;SDS011;61829;53.286;10.434;2023-05-16T02:34:00;4.47;;;2.13;;
73557;SDS011;61829;53.286;10.434;2023-05-16T02:36:26;5.85;;;2.20;;
73557;SDS011;61829;53.286;10.434;2023-05-16T02:38:53;5.70;;;2.50;;
73557;SDS011;61829;53.286;10.434;2023-05-16T02:41:19;5.35;;;2.38;;
73557;SDS011;61829;53.286;10.434;2023-05-16T02:43:47;6.25;;;2.30;;
73557;SDS011;61829;53.286;10.434;2023-05-16T02:49:09;4.90;;;2.13;;
73557;SDS011;61829;53.286;10.434;2023-05-16T02:51:34;5.97;;;2.72;;
73557;SDS011;61829;53.286;10.434;2023-05-16T02:54:00;6.43;;;3.00;;
73557;SDS011;61829;53.286;10.434;2023-05-16T02:56:26;6.95;;;3.22;;
73557;SDS011;61829;53.286;10.434;2023-05-16T02:58:53;7.18;;;3.15;;
73557;SDS011;61829;53.286;10.434;2023-05-16T03:01:19;6.70;;;2.90;;
73557;SDS011;61829;53.286;10.434;2023-05-16T03:03:45;6.40;;;2.60;;
73557;SDS011;61829;53.286;10.434;2023-05-16T03:06:11;4.35;;;2.00;;
73557;SDS011;61829;53.286;10.434;2023-05-16T03:08:37;6.95;;;2.72;;
73557;SDS011;61829;53.286;10.434;2023-05-16T03:11:03;6.70;;;1.85;;
73557;SDS011;61829;53.286;10.434;2023-05-16T03:13:29;6.07;;;2.13;;
73557;SDS011;61829;53.286;10.434;2023-05-16T03:15:55;4.68;;;1.80;;
73557;SDS011;61829;53.286;10.434;2023-05-16T03:18:21;5.55;;;1.75;;
73557;SDS011;61829;53.286;10.434;2023-05-16T03:20:46;5.93;;;1.70;;
73557;SDS011;61829;53.286;10.434;2023-05-16T03:23:13;10.50;;;1.63;;
73557;SDS011;61829;53.286;10.434;2023-05-16T03:25:38;7.38;;;1.35;;
73557;SDS011;61829;53.286;10.434;2023-05-16T03:28:05;7.78;;;2.08;;
73557;SDS011;61829;53.286;10.434;2023-05-16T03:30:32;7.15;;;1.80;;
73557;SDS011;61829;53.286;10.434;2023-05-16T03:32:59;5.75;;;1.30;;
73557;SDS011;61829;53.286;10.434;2023-05-16T03:35:25;6.70;;;1.77;;
73557;SDS011;61829;53.286;10.434;2023-05-16T03:37:52;12.45;;;2.58;;
73557;SDS011;61829;53.286;10.434;2023-05-16T03:40:18;11.43;;;1.73;;
73557;SDS011;61829;53.286;10.434;2023-05-16T03:42:44;6.30;;;1.52;;
73557;SDS011;61829;53.286;10.434;2023-05-16T03:45:09;7.10;;;1.33;;
73557;SDS011;61829;53.286;10.434;2023-05-16T03:47:35;6.68;;;1.75;;
73557;SDS011;61829;53.286;10.434;2023-05-16T03:50:03;5.47;;;1.48;;
73557;SDS011;61829;53.286;10.434;2023-05-16T03:52:30;7.53;;;1.80;;
73557;SDS011;61829;53.286;10.434;2023-05-16T03:54:56;7.38;;;1.60;;
73557;SDS011;61829;53.286;10.434;2023-05-16T03:57:21;12.45;;;1.83;;
73557;SDS011;61829;53.286;10.434;2023-05-16T03:59:47;5.32;;;1.65;;
73557;SDS011;61829;53.286;10.434;2023-05-16T04:02:13;7.75;;;2.00;;
73557;SDS011;61829;53.286;10.434;2023-05-16T04:04:39;7.30;;;1.70;;
73557;SDS011;61829;53.286;10.434;2023-05-16T04:07:05;7.85;;;1.80;;
73557;SDS011;61829;53.286;10.434;2023-05-16T04:09:31;6.15;;;1.45;;
73557;SDS011;61829;53.286;10.434;2023-05-16T04:11:57;7.53;;;2.00;;
73557;SDS011;61829;53.286;10.434;2023-05-16T04:14:26;8.80;;;1.75;;
73557;SDS011;61829;53.286;10.434;2023-05-16T04:16:52;4.68;;;1.20;;
73557;SDS011;61829;53.286;10.434;2023-05-16T04:19:17;9.30;;;1.80;;
73557;SDS011;61829;53.286;10.434;2023-05-16T04:21:43;8.23;;;1.58;;
73557;SDS011;61829;53.286;10.434;2023-05-16T04:24:09;8.38;;;1.38;;
73557;SDS011;61829;53.286;10.434;2023-05-16T04:26:35;7.22;;;1.33;;
73557;SDS011;61829;53.286;10.434;2023-05-16T04:29:03;10.82;;;1.63;;
73557;SDS011;61829;53.286;10.434;2023-05-16T04:31:32;11.23;;;1.90;;
73557;SDS011;61829;53.286;10.434;2023-05-16T04:33:58;8.77;;;1.58;;
73557;SDS011;61829;53.286;10.434;2023-05-16T04:36:24;6.65;;;1.40;;
73557;SDS011;61829;53.286;10.434;2023-05-16T04:38:54;6.78;;;1.63;;
73557;SDS011;61829;53.286;10.434;2023-05-16T04:41:23;9.70;;;2.00;;
73557;SDS011;61829;53.286;10.434;2023-05-16T04:43:49;5.45;;;1.58;;
73557;SDS011;61829;53.286;10.434;2023-05-16T04:46:16;9.80;;;1.70;;
73557;SDS011;61829;53.286;10.434;2023-05-16T04:48:42;6.88;;;1.30;;
73557;SDS011;61829;53.286;10.434;2023-05-16T04:51:08;10.25;;;1.58;;
73557;SDS011;61829;53.286;10.434;2023-05-16T04:53:34;14.88;;;1.67;;
73557;SDS011;61829;53.286;10.434;2023-05-16T04:56:00;14.70;;;2.13;;
73557;SDS011;61829;53.286;10.434;2023-05-16T04:58:25;9.52;;;1.52;;
73557;SDS011;61829;53.286;10.434;2023-05-16T05:00:51;6.05;;;1.50;;
73557;SDS011;61829;53.286;10.434;2023-05-16T05:03:17;7.80;;;1.60;;
73557;SDS011;61829;53.286;10.434;2023-05-16T05:05:43;6.13;;;1.45;;
73557;SDS011;61829;53.286;10.434;2023-05-16T05:08:10;7.68;;;1.60;;
73557;SDS011;61829;53.286;10.434;2023-05-16T05:10:36;13.18;;;1.70;;
73557;SDS011;61829;53.286;10.434;2023-05-16T05:13:02;8.80;;;1.75;;
73557;SDS011;61829;53.286;10.434;2023-05-16T05:15:27;12.07;;;1.95;;
73557;SDS011;61829;53.286;10.434;2023-05-16T05:17:53;10.68;;;1.35;;
73557;SDS011;61829;53.286;10.434;2023-05-16T05:20:19;12.23;;;1.83;;
73557;SDS011;61829;53.286;10.434;2023-05-16T05:22:45;13.98;;;1.88;;
73557;SDS011;61829;53.286;10.434;2023-05-16T05:25:11;7.65;;;1.73;;
73557;SDS011;61829;53.286;10.434;2023-05-16T05:27:37;9.52;;;2.25;;
73557;SDS011;61829;53.286;10.434;2023-05-16T05:32:30;9.23;;;1.90;;
73557;SDS011;61829;53.286;10.434;2023-05-16T05:34:56;8.95;;;1.95;;
73557;SDS011;61829;53.286;10.434;2023-05-16T05:37:22;11.50;;;1.58;;
73557;SDS011;61829;53.286;10.434;2023-05-16T05:39:48;9.35;;;2.10;;
73557;SDS011;61829;53.286;10.434;2023-05-16T05:42:13;11.18;;;1.67;;
73557;SDS011;61829;53.286;10.434;2023-05-16T05:44:39;7.30;;;1.60;;
73557;SDS011;61829;53.286;10.434;2023-05-16T05:47:05;8.63;;;1.40;;
73557;SDS011;61829;53.286;10.434;2023-05-16T05:49:32;6.07;;;1.58;;
73557;SDS011;61829;53.286;10.434;2023-05-16T05:51:58;7.95;;;1.73;;
73557;SDS011;61829;53.286;10.434;2023-05-16T05:54:24;6.50;;;1.20;;
73557;SDS011;61829;53.286;10.434;2023-05-16T05:56:50;7.18;;;1.48;;
73557;SDS011;61829;53.286;10.434;2023-05-16T05:59:16;9.00;;;1.92;;
73557;SDS011;61829;53.286;10.434;2023-05-16T06:01:41;7.38;;;1.20;;
73557;SDS011;61829;53.286;10.434;2023-05-16T06:04:11;9.27;;;1.92;;
73557;SDS011;61829;53.286;10.434;2023-05-16T06:06:37;6.25;;;1.48;;
73557;SDS011;61829;53.286;10.434;2023-05-16T06:09:04;4.32;;;1.48;;
73557;SDS011;61829;53.286;10.434;2023-05-16T06:11:30;6.90;;;1.15;;
73557;SDS011;61829;53.286;10.434;2023-05-16T06:13:56;9.57;;;1.63;;
73557;SDS011;61829;53.286;10.434;2023-05-16T06:16:25;8.15;;;1.20;;
73557;SDS011;61829;53.286;10.434;2023-05-16T06:18:51;6.57;;;1.20;;
73557;SDS011;61829;53.286;10.434;2023-05-16T06:21:18;5.53;;;1.30;;
73557;SDS011;61829;53.286;10.434;2023-05-16T06:23:44;8.27;;;1.77;;
73557;SDS011;61829;53.286;10.434;2023-05-16T06:26:09;6.40;;;1.48;;
73557;SDS011;61829;53.286;10.434;2023-05-16T06:28:35;7.35;;;1.20;;
73557;SDS011;61829;53.286;10.434;2023-05-16T06:31:01;7.78;;;1.42;;
73557;SDS011;61829;53.286;10.434;2023-05-16T06:33:27;8.60;;;1.48;;
73557;SDS011;61829;53.286;10.434;2023-05-16T06:35:53;10.57;;;2.00;;
73557;SDS011;61829;53.286;10.434;2023-05-16T06:38:20;7.20;;;1.48;;
73557;SDS011;61829;53.286;10.434;2023-05-16T06:40:46;8.27;;;1.60;;
73557;SDS011;61829;53.286;10.434;2023-05-16T06:43:12;8.27;;;1.42;;
73557;SDS011;61829;53.286;10.434;2023-05-16T06:45:38;9.93;;;1.80;;
73557;SDS011;61829;53.286;10.434;2023-05-16T06:48:04;6.38;;;1.60;;
73557;SDS011;61829;53.286;10.434;2023-05-16T06:50:31;6.38;;;1.33;;
73557;SDS011;61829;53.286;10.434;2023-05-16T06:52:57;8.55;;;1.05;;
73557;SDS011;61829;53.286;10.434;2023-05-16T06:55:23;8.05;;;1.52;;
73557;SDS011;61829;53.286;10.434;2023-05-16T06:57:49;7.70;;;1.40;;
73557;SDS011;61829;53.286;10.434;2023-05-16T07:00:15;7.38;;;1.25;;
73557;SDS011;61829;53.286;10.434;2023-05-16T07:02:41;8.57;;;1.35;;
73557;SDS011;61829;53.286;10.434;2023-05-16T07:05:07;7.53;;;1.27;;
73557;SDS011;61829;53.286;10.434;2023-05-16T07:07:33;5.70;;;1.30;;
73557;SDS011;61829;53.286;10.434;2023-05-16T07:09:59;9.70;;;1.90;;
73557;SDS011;61829;53.286;10.434;2023-05-16T07:12:25;5.60;;;1.13;;
73557;SDS011;61829;53.286;10.434;2023-05-16T07:14:51;6.03;;;1.67;;
73557;SDS011;61829;53.286;10.434;2023-05-16T07:17:17;7.68;;;1.20;;
73557;SDS011;61829;53.286;10.434;2023-05-16T07:19:43;6.68;;;1.27;;
73557;SDS011;61829;53.286;10.434;2023-05-16T07:22:09;6.32;;;1.33;;
73557;SDS011;61829;53.286;10.434;2023-05-16T07:24:37;13.00;;;1.80;;
73557;SDS011;61829;53.286;10.434;2023-05-16T07:27:03;6.72;;;1.20;;
73557;SDS011;61829;53.286;10.434;2023-05-16T07:29:29;10.45;;;1.95;;
73557;SDS011;61829;53.286;10.434;2023-05-16T07:31:55;4.60;;;1.15;;
73557;SDS011;61829;53.286;10.434;2023-05-16T07:34:21;7.93;;;1.30;;
73557;SDS011;61829;53.286;10.434;2023-05-16T07:36:47;5.03;;;1.00;;
73557;SDS011;61829;53.286;10.434;2023-05-16T07:39:13;6.65;;;1.17;;
73557;SDS011;61829;53.286;10.434;2023-05-16T07:41:40;6.55;;;1.30;;
73557;SDS011;61829;53.286;10.434;2023-05-16T07:44:06;7.70;;;1.67;;
73557;SDS011;61829;53.286;10.434;2023-05-16T07:46:32;5.10;;;1.25;;
73557;SDS011;61829;53.286;10.434;2023-05-16T07:48:58;7.13;;;1.77;;
73557;SDS011;61829;53.286;10.434;2023-05-16T07:51:24;5.28;;;1.05;;
73557;SDS011;61829;53.286;10.434;2023-05-16T07:53:50;5.85;;;1.20;;
73557;SDS011;61829;53.286;10.434;2023-05-16T07:56:17;4.10;;;1.08;;
73557;SDS011;61829;53.286;10.434;2023-05-16T07:58:43;5.40;;;1.23;;
73557;SDS011;61829;53.286;10.434;2023-05-16T08:01:09;7.47;;;1.50;;
73557;SDS011;61829;53.286;10.434;2023-05-16T08:03:36;4.65;;;1.35;;
73557;SDS011;61829;53.286;10.434;2023-05-16T08:06:03;6.45;;;1.55;;
73557;SDS011;61829;53.286;10.434;2023-05-16T08:08:29;5.05;;;1.63;;
73557;SDS011;61829;53.286;10.434;2023-05-16T08:10:56;5.50;;;1.40;;
73557;SDS011;61829;53.286;10.434;2023-05-16T08:13:22;5.20;;;1.77;;
73557;SDS011;61829;53.286;10.434;2023-05-16T08:15:49;5.55;;;1.25;;
73557;SDS011;61829;53.286;10.434;2023-05-16T08:18:15;7.28;;;1.25;;
73557;SDS011;61829;53.286;10.434;2023-05-16T08:20:41;7.93;;;1.40;;
73557;SDS011;61829;53.286;10.434;2023-05-16T08:23:08;4.97;;;1.38;;
73557;SDS011;61829;53.286;10.434;2023-05-16T08:25:34;5.82;;;0.90;;
73557;SDS011;61829;53.286;10.434;2023-05-16T08:28:00;5.57;;;1.60;;
73557;SDS011;61829;53.286;10.434;2023-05-16T08:30:26;5.72;;;1.38;;
73557;SDS011;61829;53.286;10.434;2023-05-16T08:32:53;5.97;;;1.27;;
73557;SDS011;61829;53.286;10.434;2023-05-16T08:35:20;4.68;;;0.90;;
73557;SDS011;61829;53.286;10.434;2023-05-16T08:37:45;3.72;;;1.08;;
73557;SDS011;61829;53.286;10.434;2023-05-16T08:40:11;5.00;;;1.10;;
73557;SDS011;61829;53.286;10.434;2023-05-16T08:42:38;4.25;;;1.55;;
73557;SDS011;61829;53.286;10.434;2023-05-16T08:45:05;4.97;;;1.08;;
73557;SDS011;61829;53.286;10.434;2023-05-16T08:47:32;6.18;;;1.13;;
73557;SDS011;61829;53.286;10.434;2023-05-16T08:50:04;5.60;;;2.20;;
73557;SDS011;61829;53.286;10.434;2023-05-16T08:52:34;3.85;;;1.00;;
73557;SDS011;61829;53.286;10.434;2023-05-16T08:55:03;2.75;;;1.00;;
73557;SDS011;61829;53.286;10.434;2023-05-16T08:57:30;6.63;;;1.23;;
73557;SDS011;61829;53.286;10.434;2023-05-16T08:59:58;5.10;;;1.42;;
73557;SDS011;61829;53.286;10.434;2023-05-16T09:02:25;3.97;;;1.20;;
73557;SDS011;61829;53.286;10.434;2023-05-16T09:04:53;5.25;;;1.10;;
73557;SDS011;61829;53.286;10.434;2023-05-16T09:07:22;4.95;;;1.02;;
73557;SDS011;61829;53.286;10.434;2023-05-16T09:09:48;5.50;;;1.40;;
73557;SDS011;61829;53.286;10.434;2023-05-16T09:12:14;6.18;;;1.15;;
73557;SDS011;61829;53.286;10.434;2023-05-16T09:14:40;4.45;;;1.10;;
73557;SDS011;61829;53.286;10.434;2023-05-16T09:17:06;6.25;;;1.10;;
73557;SDS011;61829;53.286;10.434;2023-05-16T09:19:37;5.22;;;1.23;;
73557;SDS011;61829;53.286;10.434;2023-05-16T09:24:40;4.57;;;1.60;;
73557;SDS011;61829;53.286;10.434;2023-05-16T09:27:07;4.30;;;1.20;;
73557;SDS011;61829;53.286;10.434;2023-05-16T09:29:43;6.72;;;1.30;;
73557;SDS011;61829;53.286;10.434;2023-05-16T09:32:15;5.05;;;1.33;;
73557;SDS011;61829;53.286;10.434;2023-05-16T09:34:42;7.05;;;2.72;;
73557;SDS011;61829;53.286;10.434;2023-05-16T09:37:10;4.07;;;1.05;;
73557;SDS011;61829;53.286;10.434;2023-05-16T09:39:38;5.20;;;1.00;;
73557;SDS011;61829;53.286;10.434;2023-05-16T09:42:10;5.13;;;1.10;;
73557;SDS011;61829;53.286;10.434;2023-05-16T09:44:37;5.10;;;1.10;;
73557;SDS011;61829;53.286;10.434;2023-05-16T09:47:04;7.13;;;1.08;;
73557;SDS011;61829;53.286;10.434;2023-05-16T09:49:31;7.90;;;1.23;;
73557;SDS011;61829;53.286;10.434;2023-05-16T09:52:01;11.25;;;5.20;;
73557;SDS011;61829;53.286;10.434;2023-05-16T09:54:29;3.50;;;1.23;;
73557;SDS011;61829;53.286;10.434;2023-05-16T09:56:57;3.58;;;0.98;;
73557;SDS011;61829;53.286;10.434;2023-05-16T09:59:27;4.47;;;1.10;;
73557;SDS011;61829;53.286;10.434;2023-05-16T10:01:53;9.32;;;1.23;;
73557;SDS011;61829;53.286;10.434;2023-05-16T10:04:19;6.50;;;1.38;;
73557;SDS011;61829;53.286;10.434;2023-05-16T10:06:49;4.63;;;1.10;;
73557;SDS011;61829;53.286;10.434;2023-05-16T10:13:00;5.28;;;1.33;;
73557;SDS011;61829;53.286;10.434;2023-05-16T10:15:29;5.85;;;1.23;;
73557;SDS011;61829;53.286;10.434;2023-05-16T10:17:58;8.23;;;1.30;;
73557;SDS011;61829;53.286;10.434;2023-05-16T10:20:24;5.05;;;1.27;;
73557;SDS011;61829;53.286;10.434;2023-05-16T10:22:52;4.88;;;1.25;;
73557;SDS011;61829;53.286;10.434;2023-05-16T10:25:31;3.63;;;1.10;;
73557;SDS011;61829;53.286;10.434;2023-05-16T10:28:03;3.90;;;1.00;;
73557;SDS011;61829;53.286;10.434;2023-05-16T10:30:30;3.60;;;1.00;;
73557;SDS011;61829;53.286;10.434;2023-05-16T10:32:58;5.40;;;1.10;;
73557;SDS011;61829;53.286;10.434;2023-05-16T10:35:25;7.63;;;1.48;;
73557;SDS011;61829;53.286;10.434;2023-05-16T10:40:20;6.18;;;1.10;;
73557;SDS011;61829;53.286;10.434;2023-05-16T10:42:56;5.18;;;0.90;;
73557;SDS011;61829;53.286;10.434;2023-05-16T10:45:23;6.13;;;1.33;;
73557;SDS011;61829;53.286;10.434;2023-05-16T10:47:52;6.63;;;1.40;;
73557;SDS011;61829;53.286;10.434;2023-05-16T10:53:11;4.38;;;1.00;;
73557;SDS011;61829;53.286;10.434;2023-05-16T11:01:22;7.07;;;1.30;;
73557;SDS011;61829;53.286;10.434;2023-05-16T11:06:23;6.70;;;0.90;;
73557;SDS011;61829;53.286;10.434;2023-05-16T11:14:22;7.93;;;1.40;;
73557;SDS011;61829;53.286;10.434;2023-05-16T11:16:53;5.70;;;1.55;;
73557;SDS011;61829;53.286;10.434;2023-05-16T11:27:29;9.13;;;1.60;;
73557;SDS011;61829;53.286;10.434;2023-05-16T11:32:41;7.78;;;1.10;;
73557;SDS011;61829;53.286;10.434;2023-05-16T11:35:13;7.45;;;2.50;;
73557;SDS011;61829;53.286;10.434;2023-05-16T11:37:43;4.55;;;1.20;;
73557;SDS011;61829;53.286;10.434;2023-05-16T11:40:12;2.60;;;1.00;;
73557;SDS011;61829;53.286;10.434;2023-05-16T11:42:39;4.88;;;1.00;;
73557;SDS011;61829;53.286;10.434;2023-05-16T11:45:08;5.55;;;1.10;;
73557;SDS011;61829;53.286;10.434;2023-05-16T11:47:37;6.07;;;1.40;;
73557;SDS011;61829;53.286;10.434;2023-05-16T11:50:14;5.05;;;1.30;;
73557;SDS011;61829;53.286;10.434;2023-05-16T11:52:42;5.15;;;1.10;;
73557;SDS011;61829;53.286;10.434;2023-05-16T11:55:10;7.25;;;1.70;;
73557;SDS011;61829;53.286;10.434;2023-05-16T11:57:39;7.78;;;1.92;;
73557;SDS011;61829;53.286;10.434;2023-05-16T12:00:13;11.90;;;1.60;;
73557;SDS011;61829;53.286;10.434;2023-05-16T12:02:43;9.38;;;1.55;;
73557;SDS011;61829;53.286;10.434;2023-05-16T12:05:12;6.93;;;1.50;;
73557;SDS011;61829;53.286;10.434;2023-05-16T12:10:09;9.00;;;1.45;;
73557;SDS011;61829;53.286;10.434;2023-05-16T12:12:45;6.75;;;1.30;;
73557;SDS011;61829;53.286;10.434;2023-05-16T12:15:13;4.30;;;1.10;;
73557;SDS011;61829;53.286;10.434;2023-05-16T12:17:40;3.58;;;1.00;;
73557;SDS011;61829;53.286;10.434;2023-05-16T12:20:07;6.30;;;1.00;;
73557;SDS011;61829;53.286;10.434;2023-05-16T12:22:44;3.65;;;1.17;;
73557;SDS011;61829;53.286;10.434;2023-05-16T12:27:54;4.50;;;0.98;;
73557;SDS011;61829;53.286;10.434;2023-05-16T12:30:24;4.47;;;1.08;;
73557;SDS011;61829;53.286;10.434;2023-05-16T12:35:32;2.80;;;1.10;;
73557;SDS011;61829;53.286;10.434;2023-05-16T12:37:58;5.07;;;1.20;;
73557;SDS011;61829;53.286;10.434;2023-05-16T12:40:28;8.75;;;2.67;;
73557;SDS011;61829;53.286;10.434;2023-05-16T12:42:54;5.30;;;1.38;;
73557;SDS011;61829;53.286;10.434;2023-05-16T12:45:20;6.05;;;1.15;;
73557;SDS011;61829;53.286;10.434;2023-05-16T12:47:47;3.35;;;1.00;;
73557;SDS011;61829;53.286;10.434;2023-05-16T12:52:50;5.45;;;1.17;;
73557;SDS011;61829;53.286;10.434;2023-05-16T12:55:21;5.30;;;0.93;;
73557;SDS011;61829;53.286;10.434;2023-05-16T12:57:47;3.30;;;0.70;;
73557;SDS011;61829;53.286;10.434;2023-05-16T13:00:20;3.60;;;0.90;;
73557;SDS011;61829;53.286;10.434;2023-05-16T13:02:50;5.43;;;1.77;;
73557;SDS011;61829;53.286;10.434;2023-05-16T13:05:16;5.07;;;0.95;;
73557;SDS011;61829;53.286;10.434;2023-05-16T13:07:42;5.25;;;1.13;;
73557;SDS011;61829;53.286;10.434;2023-05-16T13:10:09;2.70;;;1.02;;
73557;SDS011;61829;53.286;10.434;2023-05-16T13:12:36;4.00;;;1.10;;
73557;SDS011;61829;53.286;10.434;2023-05-16T13:15:04;2.63;;;0.90;;
73557;SDS011;61829;53.286;10.434;2023-05-16T13:17:35;3.97;;;0.80;;
73557;SDS011;61829;53.286;10.434;2023-05-16T13:20:02;2.67;;;0.93;;
73557;SDS011;61829;53.286;10.434;2023-05-16T13:22:33;2.00;;;0.80;;
73557;SDS011;61829;53.286;10.434;2023-05-16T13:24:59;2.03;;;1.10;;
73557;SDS011;61829;53.286;10.434;2023-05-16T13:27:25;2.58;;;0.90;;
73557;SDS011;61829;53.286;10.434;2023-05-16T13:29:51;4.55;;;2.03;;
73557;SDS011;61829;53.286;10.434;2023-05-16T13:32:16;3.55;;;0.90;;
73557;SDS011;61829;53.286;10.434;2023-05-16T13:34:47;2.70;;;0.85;;
73557;SDS011;61829;53.286;10.434;2023-05-16T13:37:13;3.17;;;1.00;;
73557;SDS011;61829;53.286;10.434;2023-05-16T13:39:40;6.20;;;0.85;;
73557;SDS011;61829;53.286;10.434;2023-05-16T13:42:06;3.05;;;0.80;;
73557;SDS011;61829;53.286;10.434;2023-05-16T13:44:35;4.07;;;0.90;;
73557;SDS011;61829;53.286;10.434;2023-05-16T13:47:01;2.30;;;0.88;;
73557;SDS011;61829;53.286;10.434;2023-05-16T13:49:30;5.82;;;1.33;;
73557;SDS011;61829;53.286;10.434;2023-05-16T13:51:56;3.78;;;1.13;;
73557;SDS011;61829;53.286;10.434;2023-05-16T13:54:23;5.78;;;1.30;;
73557;SDS011;61829;53.286;10.434;2023-05-16T13:56:49;5.88;;;1.05;;
73557;SDS011;61829;53.286;10.434;2023-05-16T13:59:15;3.00;;;1.10;;
73557;SDS011;61829;53.286;10.434;2023-05-16T14:01:41;3.08;;;0.88;;
73557;SDS011;61829;53.286;10.434;2023-05-16T14:04:07;3.80;;;0.98;;
73557;SDS011;61829;53.286;10.434;2023-05-16T14:06:32;6.13;;;1.30;;
73557;SDS011;61829;53.286;10.434;2023-05-16T14:09:02;4.50;;;0.90;;
73557;SDS011;61829;53.286;10.434;2023-05-16T14:11:31;5.35;;;1.15;;
73557;SDS011;61829;53.286;10.434;2023-05-16T14:13:56;5.20;;;0.95;;
73557;SDS011;61829;53.286;10.434;2023-05-16T14:16:24;3.17;;;0.80;;
73557;SDS011;61829;53.286;10.434;2023-05-16T14:18:50;4.95;;;0.80;;
73557;SDS011;61829;53.286;10.434;2023-05-16T14:21:16;7.32;;;0.80;;
73557;SDS011;61829;53.286;10.434;2023-05-16T14:23:42;5.85;;;0.88;;
73557;SDS011;61829;53.286;10.434;2023-05-16T14:26:11;3.85;;;1.00;;
73557;SDS011;61829;53.286;10.434;2023-05-16T14:28:37;5.15;;;1.05;;
73557;SDS011;61829;53.286;10.434;2023-05-16T14:31:03;6.47;;;1.05;;
73557;SDS011;61829;53.286;10.434;2023-05-16T14:33:29;6.40;;;1.10;;
73557;SDS011;61829;53.286;10.434;2023-05-16T14:35:57;6.90;;;1.05;;
73557;SDS011;61829;53.286;10.434;2023-05-16T14:38:24;4.60;;;1.10;;
73557;SDS011;61829;53.286;10.434;2023-05-16T14:40:49;3.67;;;0.90;;
73557;SDS011;61829;53.286;10.434;2023-05-16T14:43:16;3.15;;;0.90;;
73557;SDS011;61829;53.286;10.434;2023-05-16T14:45:41;4.38;;;0.80;;
73557;SDS011;61829;53.286;10.434;2023-05-16T14:48:08;1.80;;;0.70;;
73557;SDS011;61829;53.286;10.434;2023-05-16T14:50:34;5.32;;;1.30;;
73557;SDS011;61829;53.286;10.434;2023-05-16T14:53:00;3.55;;;0.80;;
73557;SDS011;61829;53.286;10.434;2023-05-16T14:55:26;5.05;;;1.13;;
73557;SDS011;61829;53.286;10.434;2023-05-16T14:57:52;4.30;;;1.02;;
73557;SDS011;61829;53.286;10.434;2023-05-16T15:00:22;2.33;;;0.77;;
73557;SDS011;61829;53.286;10.434;2023-05-16T15:02:51;8.13;;;2.25;;
73557;SDS011;61829;53.286;10.434;2023-05-16T15:05:21;5.15;;;1.00;;
73557;SDS011;61829;53.286;10.434;2023-05-16T15:07:50;11.23;;;5.93;;
73557;SDS011;61829;53.286;10.434;2023-05-16T15:10:16;4.05;;;0.80;;
73557;SDS011;61829;53.286;10.434;2023-05-16T15:12:44;1.75;;;0.68;;
73557;SDS011;61829;53.286;10.434;2023-05-16T15:15:10;2.75;;;0.90;;
73557;SDS011;61829;53.286;10.434;2023-05-16T15:17:37;2.35;;;0.90;;
73557;SDS011;61829;53.286;10.434;2023-05-16T15:20:07;3.05;;;1.17;;
73557;SDS011;61829;53.286;10.434;2023-05-16T15:22:35;2.50;;;0.82;;
73557;SDS011;61829;53.286;10.434;2023-05-16T15:25:02;3.65;;;1.10;;
73557;SDS011;61829;53.286;10.434;2023-05-16T15:27:30;21.73;;;4.32;;
73557;SDS011;61829;53.286;10.434;2023-05-16T15:29:57;4.18;;;0.80;;
73557;SDS011;61829;53.286;10.434;2023-05-16T15:32:23;6.50;;;1.10;;
73557;SDS011;61829;53.286;10.434;2023-05-16T15:34:49;3.78;;;1.17;;
73557;SDS011;61829;53.286;10.434;2023-05-16T15:37:15;5.18;;;1.13;;